Time;durP1;ratioP1;P1;durP2;ratioP2;P2;SDS_P1;SDS_P2;PMS_P1;PMS_P2;Temp;Humidity;BMP_temperature;BMP_pressure;BME280_temperature;BME280_humidity;BME280_pressure;Samples;Min_cycle;Max_cycle;Signal;HPM_P1;HPM_P2
2022/10/22 15:31:45;;;;;;;43.35;25.65;;;;;;;8.30;100.00;99592.83;1766627;78;22895;-67
2022/10/22 15:34:26;;;;;;;44.10;25.25;;;;;;;8.32;100.00;99605.08;1720887;82;21223;-67
2022/10/22 15:36:55;;;;;;;38.63;23.67;;;;;;;8.51;100.00;99605.45;1749738;82;21047;-68
2022/10/22 15:39:22;;;;;;;62.65;38.85;;;;;;;8.65;100.00;99609.88;1752172;82;21058;-68
2022/10/22 15:48:45;;;;;;;96.25;53.10;;;;;;;8.76;100.00;99604.80;1752710;79;23192;-68
2022/10/22 15:51:16;;;;;;;89.85;51.13;;;;;;;8.67;100.00;99607.20;1741072;82;20991;-69
2022/10/22 15:53:42;;;;;;;93.82;53.15;;;;;;;8.76;100.00;99612.94;1729441;82;21081;-68
2022/10/22 15:56:12;;;;;;;68.87;42.17;;;;;;;8.84;100.00;99606.48;1712124;82;21475;-69
2022/10/22 15:58:39;;;;;;;67.03;36.80;;;;;;;8.89;100.00;99605.70;1735966;82;21129;-69
2022/10/22 16:01:06;;;;;;;56.53;39.33;;;;;;;8.88;100.00;99610.84;1719407;82;21006;-69
2022/10/22 16:03:34;;;;;;;63.83;37.95;;;;;;;8.84;100.00;99609.73;1737580;82;21105;-69
2022/10/22 16:06:00;;;;;;;;;;;;;;;8.85;100.00;99602.70;1741373;82;21041;-69
2022/10/22 16:08:26;;;;;;;52.20;36.68;;;;;;;8.88;100.00;99597.27;1729782;82;20126;-68
2022/10/22 16:10:53;;;;;;;39.35;28.73;;;;;;;8.87;100.00;99595.63;1712223;82;21565;-68
2022/10/22 16:13:23;;;;;;;32.80;22.20;;;;;;;8.85;100.00;99601.34;1713039;82;21069;-68
2022/10/22 16:15:52;;;;;;;36.03;24.10;;;;;;;8.80;100.00;99606.73;1682093;85;21058;-69
2022/10/22 16:18:20;;;;;;;38.92;25.88;;;;;;;8.75;100.00;99605.90;1707704;82;21070;-68
2022/10/22 16:20:47;;;;;;;40.80;26.40;;;;;;;8.77;100.00;99608.62;1715194;82;21018;-68
2022/10/22 16:23:17;;;;;;;63.95;43.90;;;;;;;8.86;100.00;99612.45;1731140;82;21078;-68
2022/10/22 16:25:42;;;;;;;52.48;36.77;;;;;;;8.87;100.00;99615.98;1700970;84;20967;-68
2022/10/22 16:28:08;;;;;;;;;;;;;;;8.85;100.00;99619.52;1713754;84;21074;-68
2022/10/22 16:30:36;;;;;;;58.68;39.45;;;;;;;8.82;100.00;99625.48;1661421;85;20727;-68
2022/10/22 16:33:05;;;;;;;54.93;38.00;;;;;;;8.72;100.00;99627.57;1708369;82;21046;-68
2022/10/22 16:35:31;;;;;;;58.35;37.95;;;;;;;8.74;100.00;99628.68;1736214;82;21002;-68
2022/10/22 16:37:58;;;;;;;;;;;;;;;8.78;100.00;99629.80;1739951;82;21027;-69
2022/10/22 16:40:25;;;;;;;43.23;32.42;;;;;;;8.78;100.00;99621.66;1718864;82;20141;-68
2022/10/22 16:42:52;;;;;;;48.42;32.73;;;;;;;8.67;100.00;99622.67;1714385;82;21042;-68
2022/10/22 16:45:18;;;;;;;69.87;44.20;;;;;;;8.65;100.00;99619.37;1706633;82;21804;-68
2022/10/22 16:47:45;;;;;;;;;;;;;;;8.61;100.00;99613.66;1703266;84;21058;-68
2022/10/22 16:50:12;;;;;;;70.43;45.40;;;;;;;8.63;100.00;99614.23;1693714;84;20109;-68
2022/10/22 16:52:40;;;;;;;99.70;63.55;;;;;;;8.63;100.00;99608.80;1725925;83;21494;-68
2022/10/22 16:55:07;;;;;;;123.20;84.00;;;;;;;8.60;100.00;99594.41;1708308;83;21026;-68
2022/10/22 16:57:34;;;;;;;95.90;72.62;;;;;;;8.53;100.00;99593.00;1704116;83;21003;-68
2022/10/22 17:00:03;;;;;;;58.38;44.65;;;;;;;8.45;100.00;99599.20;1704711;83;21529;-68
2022/10/22 17:02:30;;;;;;;49.70;36.38;;;;;;;8.44;100.00;99592.13;1718484;83;21019;-68
2022/10/22 17:04:57;;;;;;;42.55;29.85;;;;;;;8.50;100.00;99595.14;1704438;84;20975;-68
2022/10/22 17:07:23;;;;;;;38.90;26.70;;;;;;;8.52;100.00;99587.29;1704205;84;21094;-68
2022/10/22 17:09:49;;;;;;;38.45;27.65;;;;;;;8.49;100.00;99590.81;1704408;83;21030;-68
2022/10/22 17:12:16;;;;;;;50.15;35.78;;;;;;;8.46;100.00;99591.34;1705173;83;21003;-68
2022/10/22 17:14:42;;;;;;;42.33;30.75;;;;;;;8.55;100.00;99600.33;1705878;83;21023;-68
2022/10/22 17:17:09;;;;;;;42.58;30.72;;;;;;;8.55;100.00;99600.33;1703958;84;21611;-67
2022/10/22 17:19:37;;;;;;;48.50;32.95;;;;;;;8.66;100.00;99591.17;1703755;84;21124;-68
2022/10/22 17:22:05;;;;;;;43.08;31.02;;;;;;;8.71;100.00;99600.72;1704424;82;21165;-68
2022/10/22 17:24:32;;;;;;;45.83;31.12;;;;;;;8.69;100.00;99598.25;1725179;83;21719;-67
2022/10/22 17:26:58;;;;;;;;;;;;;;;8.63;100.00;99592.52;1735386;83;21054;-68
2022/10/22 17:29:24;;;;;;;74.37;47.80;;;;;;;8.50;100.00;99593.00;1691278;83;20128;-68
2022/10/22 17:31:51;;;;;;;67.08;45.85;;;;;;;8.34;100.00;99585.28;1670313;84;21000;-68
2022/10/22 17:34:18;;;;;;;57.48;42.30;;;;;;;8.39;100.00;99579.08;1678188;84;21929;-67
2022/10/22 17:36:44;;;;;;;59.40;39.35;;;;;;;8.45;100.00;99575.31;1678728;84;20959;-68
2022/10/22 17:39:14;;;;;;;45.05;33.23;;;;;;;8.45;100.00;99580.74;1672721;81;72303;-69
2022/10/22 17:41:42;;;;;;;55.23;37.85;;;;;;;8.36;100.00;99580.40;1670520;84;20959;-68
2022/10/22 17:44:09;;;;;;;45.23;31.70;;;;;;;8.35;100.00;99587.45;1657329;85;21051;-69
2022/10/22 17:46:37;;;;;;;49.13;34.70;;;;;;;8.43;100.00;99585.06;1632009;85;20984;-69
2022/10/22 17:49:06;;;;;;;40.38;30.25;;;;;;;8.58;100.00;99580.80;1645737;85;21068;-69
2022/10/22 17:51:33;;;;;;;32.83;23.40;;;;;;;8.65;100.00;99573.25;1653943;85;21077;-69
2022/10/22 17:54:00;;;;;;;36.35;23.02;;;;;;;8.64;100.00;99572.46;1644763;85;21129;-69
2022/10/22 17:56:28;;;;;;;30.80;22.10;;;;;;;8.66;100.00;99572.18;1627321;86;21044;-68
2022/10/22 17:58:55;;;;;;;31.42;20.52;;;;;;;8.68;100.00;99571.39;1650112;85;21888;-70
2022/10/22 18:01:24;;;;;;;28.83;21.12;;;;;;;8.75;100.00;99560.55;1647169;85;21908;-69
2022/10/22 18:03:52;;;;;;;29.27;19.20;;;;;;;8.86;100.00;99550.56;1652662;85;21071;-69
2022/10/22 18:06:19;;;;;;;32.50;19.55;;;;;;;8.90;100.00;99559.27;1647268;86;21564;-69
2022/10/22 18:08:45;;;;;;;29.35;20.23;;;;;;;8.89;100.00;99556.27;1648704;86;21093;-69
2022/10/22 18:11:16;;;;;;;35.28;21.07;;;;;;;8.91;100.00;99543.80;1645766;86;20977;-69
2022/10/22 18:13:42;;;;;;;29.45;20.72;;;;;;;8.92;100.00;99542.20;1647237;86;21095;-70
2022/10/22 18:16:09;;;;;;;31.17;21.07;;;;;;;8.95;100.00;99547.62;1647503;86;21558;-70
2022/10/22 18:18:36;;;;;;;34.53;21.50;;;;;;;9.02;100.00;99546.84;1650815;85;21102;-71
2022/10/22 18:21:04;;;;;;;33.48;21.93;;;;;;;9.07;100.00;99541.41;1649045;86;20999;-69
2022/10/22 18:23:32;;;;;;;33.53;21.82;;;;;;;9.05;100.00;99536.80;1658522;86;21009;-70
2022/10/22 18:25:59;;;;;;;30.25;22.00;;;;;;;9.05;100.00;99536.80;1657381;85;21003;-70
2022/10/22 18:28:25;;;;;;;32.90;20.80;;;;;;;9.06;100.00;99537.63;1648311;85;21141;-69
2022/10/22 18:30:52;;;;;;;31.50;20.02;;;;;;;9.09;100.00;99527.04;1647092;85;20967;-70
2022/10/22 18:40:52;;;;;;;23.33;15.23;;;;;;;9.20;100.00;99517.84;1797014;79;23005;-72
2022/10/22 18:43:19;;;;;;;23.00;16.45;;;;;;;9.09;100.00;99514.82;1769097;80;21085;-70
2022/10/22 18:45:46;;;;;;;27.05;18.23;;;;;;;9.13;100.00;99524.07;1749953;82;21002;-69
2022/10/22 18:48:18;;;;;;;29.18;20.15;;;;;;;9.24;100.00;99526.27;1750506;81;21535;-70
2022/10/22 18:50:45;;;;;;;27.73;21.35;;;;;;;9.26;100.00;99518.66;1741488;81;21070;-69
2022/10/22 18:53:13;;;;;;;29.35;21.00;;;;;;;9.28;100.00;99516.51;1747416;81;21029;-69
2022/10/22 18:55:40;;;;;;;29.63;19.77;;;;;;;9.26;100.00;99518.66;1750777;82;21018;-69
2022/10/22 18:58:06;;;;;;;;;;;;;;;9.23;100.00;99521.37;1750754;81;21482;-69
2022/10/22 19:00:34;;;;;;;27.45;17.95;;;;;;;9.25;100.00;99518.38;1747991;81;20108;-69
2022/10/22 19:03:02;;;;;;;30.40;19.30;;;;;;;9.24;100.00;99510.80;1732333;80;21047;-69
2022/10/22 19:05:28;;;;;;;27.67;18.40;;;;;;;9.24;100.00;99510.80;1754067;82;20994;-69
2022/10/22 19:07:55;;;;;;;;;;;;;;;9.21;100.00;99510.52;1754869;80;20948;-69
2022/10/22 19:10:22;;;;;;;29.37;20.40;;;;;;;9.19;100.00;99508.59;1751407;80;20106;-69
2022/10/22 19:12:48;;;;;;;32.70;20.10;;;;;;;9.08;100.00;99509.11;1727619;80;21151;-69
2022/10/22 19:15:15;;;;;;;30.40;19.02;;;;;;;9.13;100.00;99512.39;1727697;82;21085;-70
2022/10/22 19:17:43;;;;;;;31.52;20.15;;;;;;;9.23;100.00;99507.80;1727313;80;20960;-69
2022/10/22 19:20:10;;;;;;;33.08;19.40;;;;;;;9.29;100.00;99506.72;1736055;81;21062;-69
2022/10/22 19:22:36;;;;;;;30.62;21.10;;;;;;;9.28;100.00;99511.08;1725380;82;20995;-69
2022/10/22 19:25:05;;;;;;;32.55;21.65;;;;;;;9.24;100.00;99504.55;1724655;82;21126;-69
2022/10/22 19:27:35;;;;;;;30.45;19.73;;;;;;;9.22;100.00;99506.69;1720214;82;21581;-69
2022/10/22 19:30:03;;;;;;;33.10;20.20;;;;;;;9.24;100.00;99503.19;1733151;80;21094;-69
2022/10/22 19:32:31;;;;;;;29.70;18.48;;;;;;;9.31;100.00;99496.95;1737405;82;21014;-70
2022/10/22 19:35:00;;;;;;;31.48;18.35;;;;;;;9.30;100.00;99502.92;1709312;83;21106;-69
2022/10/22 19:37:28;;;;;;;29.05;17.60;;;;;;;9.27;100.00;99507.54;1683091;85;20975;-69
2022/10/22 19:39:54;;;;;;;25.97;18.12;;;;;;;9.23;100.00;99508.34;1676731;83;21637;-69
2022/10/22 19:42:20;;;;;;;;;;;;;;;9.19;100.00;99512.13;1678259;84;21546;-69
2022/10/22 19:44:47;;;;;;;27.02;16.20;;;;;;;9.23;100.00;99512.41;1694450;83;20497;-69
2022/10/22 19:47:14;;;;;;;25.65;16.75;;;;;;;9.25;100.00;99499.36;1689532;84;21039;-69
2022/10/22 19:49:41;;;;;;;26.95;16.55;;;;;;;9.26;100.00;99503.19;1683457;84;21071;-69
2022/10/22 19:52:08;;;;;;;25.82;16.17;;;;;;;9.24;100.00;99501.29;1681809;85;21003;-70
2022/10/22 19:54:37;;;;;;;;;;;;;;;9.20;100.00;99509.70;1695851;83;21434;-69
2022/10/22 19:57:03;;;;;;;24.90;16.65;;;;;;;9.20;100.00;99509.70;1699051;83;20524;-69
2022/10/22 19:59:30;;;;;;;24.63;15.88;;;;;;;9.13;100.00;99512.39;1731164;81;21055;-69
2022/10/22 20:01:57;;;;;;;28.83;17.55;;;;;;;9.15;100.00;99515.10;1735460;82;21511;-69
2022/10/22 20:56:23;;;;;;;28.32;17.05;;;;;;;7.54;100.00;99503.30;1775866;79;22763;-69
2022/10/22 20:58:52;;;;;;;26.57;17.60;;;;;;;7.55;100.00;99501.66;1747118;81;21022;-69
2022/10/22 21:01:20;;;;;;;27.65;16.55;;;;;;;7.70;100.00;99496.92;1736123;81;21109;-69
2022/10/22 21:03:49;;;;;;;24.92;15.93;;;;;;;7.84;100.00;99497.58;1718443;83;21037;-69
2022/10/22 21:06:21;;;;;;;24.67;15.32;;;;;;;7.98;100.00;99495.23;1715447;81;21146;-68
2022/10/22 21:08:47;;;;;;;24.30;15.13;;;;;;;8.10;100.00;99487.74;1734248;81;21011;-68
2022/10/22 21:11:14;;;;;;;23.40;14.98;;;;;;;8.21;100.00;99475.88;1757972;81;21454;-68
2022/10/22 21:13:42;;;;;;;24.87;15.63;;;;;;;8.31;100.00;99473.79;1756906;80;21624;-69
2022/10/22 21:16:10;;;;;;;26.65;17.05;;;;;;;8.32;100.00;99469.47;1757267;80;21071;-70
2022/10/22 21:18:38;;;;;;;26.75;16.60;;;;;;;8.33;100.00;99468.37;1746882;80;21295;-69
2022/10/22 21:21:06;;;;;;;25.62;16.55;;;;;;;8.38;100.00;99468.95;1703693;81;21123;-69
2022/10/22 21:23:34;;;;;;;25.43;16.42;;;;;;;8.47;100.00;99468.17;1684168;83;21079;-68
2022/10/22 21:26:00;;;;;;;24.35;16.35;;;;;;;8.57;100.00;99461.17;1706727;82;22208;-68
2022/10/22 21:28:27;;;;;;;25.45;17.05;;;;;;;8.62;100.00;99465.25;1717413;81;21074;-69
2022/10/22 21:30:53;;;;;;;28.23;18.40;;;;;;;8.66;100.00;99449.53;1725206;82;21087;-68
2022/10/22 21:33:20;;;;;;;25.30;18.40;;;;;;;8.64;100.00;99452.25;1722421;82;20991;-68
2022/10/22 21:35:52;;;;;;;26.35;18.30;;;;;;;8.62;100.00;99448.43;1703646;82;21670;-69
2022/10/22 21:38:19;;;;;;;26.57;18.52;;;;;;;8.66;100.00;99450.07;1711659;81;21472;-69
2022/10/22 21:40:46;;;;;;;31.05;20.40;;;;;;;8.69;100.00;99441.39;1726445;82;21127;-69
2022/10/22 21:43:14;;;;;;;33.63;21.52;;;;;;;8.71;100.00;99437.89;1711292;84;21022;-69
2022/10/22 21:45:40;;;;;;;32.08;20.68;;;;;;;8.75;100.00;99436.28;1700398;82;21558;-69
2022/10/22 21:48:07;;;;;;;33.25;21.42;;;;;;;8.74;100.00;99434.64;1710338;82;21014;-69
2022/10/22 21:50:35;;;;;;;30.62;22.17;;;;;;;8.69;100.00;99434.07;1692113;83;21632;-69
2022/10/22 21:53:02;;;;;;;35.68;21.73;;;;;;;8.67;100.00;99428.64;1684979;83;21025;-69
2022/10/22 21:55:29;;;;;;;;;;;;;;;8.70;100.00;99430.82;1685836;84;21043;-69
2022/10/22 21:57:55;;;;;;;31.80;20.77;;;;;;;8.74;100.00;99430.03;1697873;83;20168;-69
2022/10/22 22:00:22;;;;;;;;;;;;;;;8.74;100.00;99432.74;1700108;83;21562;-68
2022/10/22 22:02:49;;;;;;;33.60;21.35;;;;;;;8.78;100.00;99431.13;1694385;83;20109;-69
2022/10/22 22:05:16;;;;;;;35.80;22.98;;;;;;;8.75;100.00;99431.64;1728917;81;21106;-68
2022/10/22 22:07:43;;;;;;;32.88;23.05;;;;;;;8.76;100.00;99432.45;1725995;82;21972;-68
2022/10/22 22:10:11;;;;;;;36.05;24.30;;;;;;;8.74;100.00;99428.67;1731997;82;21106;-69
2022/10/22 22:12:37;;;;;;;29.67;20.50;;;;;;;8.78;100.00;99433.02;1740395;82;21041;-69
2022/10/22 22:15:06;;;;;;;32.25;21.87;;;;;;;8.81;100.00;99425.16;1722166;80;21039;-68
2022/10/22 22:17:32;;;;;;;31.27;20.72;;;;;;;8.84;100.00;99425.98;1744579;82;20975;-68
2022/10/22 22:20:01;;;;;;;31.97;21.23;;;;;;;8.85;100.00;99421.37;1706841;83;21499;-69
2022/10/22 22:22:29;;;;;;;33.42;20.77;;;;;;;8.84;100.00;99412.95;1742800;82;21593;-69
2022/10/22 22:24:56;;;;;;;31.42;21.77;;;;;;;8.82;100.00;99421.34;1741169;81;21085;-68
2022/10/22 22:27:22;;;;;;;31.75;19.62;;;;;;;8.78;100.00;99414.84;1743154;81;21887;-69
2022/10/22 22:29:49;;;;;;;28.40;18.75;;;;;;;8.79;100.00;99419.70;1742554;81;21034;-68
2022/10/22 22:32:16;;;;;;;32.67;19.25;;;;;;;8.83;100.00;99412.66;1735580;81;21047;-69
2022/10/22 22:34:42;;;;;;;28.38;19.73;;;;;;;8.88;100.00;99416.77;1733104;81;21538;-69
2022/10/22 22:37:08;;;;;;;28.62;20.02;;;;;;;8.85;100.00;99414.59;1734257;81;21606;-69
2022/10/22 22:39:35;;;;;;;;;;;;;;;8.81;100.00;99417.56;1710844;82;21047;-69
2022/10/22 22:42:01;;;;;;;28.45;19.30;;;;;;;8.76;100.00;99414.28;1698616;83;20177;-69
2022/10/22 22:44:28;;;;;;;;;;;;;;;8.70;100.00;99415.89;1695372;83;21066;-69
2022/10/22 22:46:54;;;;;;;29.95;17.45;;;;;;;8.77;100.00;99411.03;1696455;83;20131;-69
2022/10/22 22:49:21;;;;;;;28.07;18.25;;;;;;;8.79;100.00;99419.70;1696397;83;21074;-69
2022/10/22 22:51:48;;;;;;;;;;;;;;;8.82;100.00;99419.20;1743051;80;21067;-69
2022/10/22 22:54:16;;;;;;;24.82;17.65;;;;;;;8.83;100.00;99423.52;1731659;81;20122;-69
2022/10/22 22:56:43;;;;;;;27.02;19.05;;;;;;;8.73;100.00;99408.58;1728804;80;21456;-69
2022/10/22 22:59:09;;;;;;;24.72;17.32;;;;;;;8.70;100.00;99415.36;1743813;81;21090;-69
2022/10/22 23:01:37;;;;;;;25.30;17.30;;;;;;;8.74;100.00;99420.53;1746151;81;21161;-69
2022/10/22 23:04:15;;;;;;;29.57;18.15;;;;;;;8.81;100.00;99418.38;1755490;81;22153;-69
2022/10/22 23:06:41;;;;;;;27.45;18.30;;;;;;;8.82;100.00;99426.77;1754037;80;21593;-70
2022/10/22 23:09:11;;;;;;;27.77;18.17;;;;;;;8.78;100.00;99416.20;1732746;81;21091;-69
2022/10/22 23:11:39;;;;;;;28.32;18.07;;;;;;;8.75;100.00;99420.78;1719529;82;21503;-69
2022/10/22 23:14:06;;;;;;;29.15;18.20;;;;;;;8.80;100.00;99411.84;1694104;83;20987;-70
2022/10/22 23:16:35;;;;;;;25.95;17.15;;;;;;;8.84;100.00;99415.66;1722362;82;21103;-69
2022/10/22 23:19:03;;;;;;;27.10;17.40;;;;;;;8.88;100.00;99409.97;1704319;84;21073;-69
2022/10/22 23:21:32;;;;;;;25.35;17.35;;;;;;;8.90;100.00;99411.33;1713254;82;21107;-69
2022/10/22 23:24:01;;;;;;;26.95;18.05;;;;;;;8.86;100.00;99407.52;1712134;82;21015;-70
2022/10/22 23:26:30;;;;;;;27.32;16.40;;;;;;;8.82;100.00;99402.91;1723271;82;21072;-69
2022/10/22 23:29:07;;;;;;;25.15;17.20;;;;;;;8.83;100.00;99405.87;1694781;84;20993;-69
2022/10/22 23:31:33;;;;;;;26.27;17.12;;;;;;;8.86;100.00;99405.34;1684322;83;21550;-70
2022/10/22 23:34:00;;;;;;;22.87;16.95;;;;;;;8.85;100.00;99397.77;1700165;83;21467;-70
2022/10/22 23:36:26;;;;;;;22.62;16.62;;;;;;;8.87;100.00;99404.27;1714307;82;21115;-70
2022/10/22 23:38:53;;;;;;;25.92;16.67;;;;;;;8.84;100.00;99399.37;1723086;82;20972;-70
2022/10/22 23:41:19;;;;;;;29.27;17.27;;;;;;;8.78;100.00;99405.88;1710152;82;21080;-70
2022/10/22 23:43:46;;;;;;;24.50;17.15;;;;;;;8.71;100.00;99397.19;1689737;83;21036;-71
2022/10/22 23:46:13;;;;;;;24.15;16.82;;;;;;;8.69;100.00;99401.50;1687782;83;21091;-70
2022/10/22 23:48:39;;;;;;;26.42;17.37;;;;;;;8.71;100.00;99399.90;1699324;83;21462;-69
2022/10/22 23:51:09;;;;;;;24.32;16.73;;;;;;;8.72;100.00;99406.39;1709410;82;21876;-70
2022/10/22 23:53:35;;;;;;;24.77;16.75;;;;;;;8.74;100.00;99402.07;1683269;84;21537;-69
2022/10/22 23:56:05;;;;;;;24.35;17.48;;;;;;;8.69;100.00;99406.94;1711344;82;21438;-70
2022/10/22 23:58:31;;;;;;;27.35;18.15;;;;;;;8.65;100.00;99398.23;1708870;82;21037;-70
